sensor_id;sensor_type;location;lat;lon;timestamp;temperature;humidity
61004;DHT22;46889;37.310;13.582;2022-12-07T00:01:28;15.40;99.90
61004;DHT22;46889;37.310;13.582;2022-12-07T00:03:55;15.40;99.90
61004;DHT22;46889;37.310;13.582;2022-12-07T00:06:35;15.40;99.90
61004;DHT22;46889;37.310;13.582;2022-12-07T00:09:02;15.40;99.90
61004;DHT22;46889;37.310;13.582;2022-12-07T00:11:33;15.30;99.90
61004;DHT22;46889;37.310;13.582;2022-12-07T00:14:02;15.30;99.90
61004;DHT22;46889;37.310;13.582;2022-12-07T00:16:32;15.30;99.90
61004;DHT22;46889;37.310;13.582;2022-12-07T00:18:58;15.20;99.90
61004;DHT22;46889;37.310;13.582;2022-12-07T00:21:28;15.20;99.90
61004;DHT22;46889;37.310;13.582;2022-12-07T00:23:59;15.20;99.90
61004;DHT22;46889;37.310;13.582;2022-12-07T00:26:36;15.20;99.90
61004;DHT22;46889;37.310;13.582;2022-12-07T00:29:06;15.10;99.90
61004;DHT22;46889;37.310;13.582;2022-12-07T00:31:35;15.20;99.90
61004;DHT22;46889;37.310;13.582;2022-12-07T00:34:06;15.20;99.90
61004;DHT22;46889;37.310;13.582;2022-12-07T00:36:34;15.20;99.90
61004;DHT22;46889;37.310;13.582;2022-12-07T00:39:01;15.30;99.90
61004;DHT22;46889;37.310;13.582;2022-12-07T00:41:29;15.30;99.90
61004;DHT22;46889;37.310;13.582;2022-12-07T00:43:56;15.30;99.90
61004;DHT22;46889;37.310;13.582;2022-12-07T00:46:24;15.30;99.90
61004;DHT22;46889;37.310;13.582;2022-12-07T00:48:53;15.30;99.90
61004;DHT22;46889;37.310;13.582;2022-12-07T00:51:22;15.30;99.90
61004;DHT22;46889;37.310;13.582;2022-12-07T00:53:48;15.20;99.90
61004;DHT22;46889;37.310;13.582;2022-12-07T00:56:26;15.20;99.90
61004;DHT22;46889;37.310;13.582;2022-12-07T00:58:55;15.20;99.90
61004;DHT22;46889;37.310;13.582;2022-12-07T01:01:23;15.20;99.90
61004;DHT22;46889;37.310;13.582;2022-12-07T01:03:51;15.20;99.90
61004;DHT22;46889;37.310;13.582;2022-12-07T01:06:21;15.30;99.90
61004;DHT22;46889;37.310;13.582;2022-12-07T01:08:48;15.30;99.90
61004;DHT22;46889;37.310;13.582;2022-12-07T01:11:17;15.30;99.90
61004;DHT22;46889;37.310;13.582;2022-12-07T01:13:46;15.30;99.90
61004;DHT22;46889;37.310;13.582;2022-12-07T01:16:14;15.30;99.90
61004;DHT22;46889;37.310;13.582;2022-12-07T01:18:44;15.30;99.90
61004;DHT22;46889;37.310;13.582;2022-12-07T01:21:14;15.30;99.90
61004;DHT22;46889;37.310;13.582;2022-12-07T01:23:42;15.30;99.90
61004;DHT22;46889;37.310;13.582;2022-12-07T01:26:11;15.30;99.90
61004;DHT22;46889;37.310;13.582;2022-12-07T01:28:39;15.30;99.90
61004;DHT22;46889;37.310;13.582;2022-12-07T01:31:09;15.30;99.90
61004;DHT22;46889;37.310;13.582;2022-12-07T01:33:42;15.30;99.90
61004;DHT22;46889;37.310;13.582;2022-12-07T01:36:15;15.30;99.90
61004;DHT22;46889;37.310;13.582;2022-12-07T01:38:41;15.30;99.90
61004;DHT22;46889;37.310;13.582;2022-12-07T01:41:08;15.20;99.90
61004;DHT22;46889;37.310;13.582;2022-12-07T01:43:35;15.20;99.90
61004;DHT22;46889;37.310;13.582;2022-12-07T01:46:03;15.20;99.90
61004;DHT22;46889;37.310;13.582;2022-12-07T01:48:34;15.20;99.90
61004;DHT22;46889;37.310;13.582;2022-12-07T01:51:08;15.20;99.90
61004;DHT22;46889;37.310;13.582;2022-12-07T01:53:40;15.20;99.90
61004;DHT22;46889;37.310;13.582;2022-12-07T01:56:10;15.20;99.90
61004;DHT22;46889;37.310;13.582;2022-12-07T01:58:40;15.20;99.90
61004;DHT22;46889;37.310;13.582;2022-12-07T02:01:07;15.20;99.90
61004;DHT22;46889;37.310;13.582;2022-12-07T02:03:42;15.10;99.90
61004;DHT22;46889;37.310;13.582;2022-12-07T02:06:12;15.10;99.90
61004;DHT22;46889;37.310;13.582;2022-12-07T02:08:42;15.10;99.90
61004;DHT22;46889;37.310;13.582;2022-12-07T02:11:09;15.10;99.90
61004;DHT22;46889;37.310;13.582;2022-12-07T02:13:39;15.10;99.90
61004;DHT22;46889;37.310;13.582;2022-12-07T02:30:14;15.00;99.90
61004;DHT22;46889;37.310;13.582;2022-12-07T02:33:00;15.00;99.90
61004;DHT22;46889;37.310;13.582;2022-12-07T02:40:45;15.00;99.90
61004;DHT22;46889;37.310;13.582;2022-12-07T02:43:27;14.90;99.90
61004;DHT22;46889;37.310;13.582;2022-12-07T02:46:02;15.00;99.90
61004;DHT22;46889;37.310;13.582;2022-12-07T02:48:33;14.90;99.90
61004;DHT22;46889;37.310;13.582;2022-12-07T02:51:01;14.90;99.90
61004;DHT22;46889;37.310;13.582;2022-12-07T02:53:36;14.90;99.90
61004;DHT22;46889;37.310;13.582;2022-12-07T02:56:13;14.90;99.90
61004;DHT22;46889;37.310;13.582;2022-12-07T03:01:50;14.80;99.90
61004;DHT22;46889;37.310;13.582;2022-12-07T03:04:44;14.80;99.90
61004;DHT22;46889;37.310;13.582;2022-12-07T03:07:26;14.80;99.90
61004;DHT22;46889;37.310;13.582;2022-12-07T03:10:14;14.80;99.90
61004;DHT22;46889;37.310;13.582;2022-12-07T03:18:25;14.80;99.90
61004;DHT22;46889;37.310;13.582;2022-12-07T03:20:57;14.80;99.90
61004;DHT22;46889;37.310;13.582;2022-12-07T03:23:26;14.80;99.90
61004;DHT22;46889;37.310;13.582;2022-12-07T03:25:58;14.80;99.90
61004;DHT22;46889;37.310;13.582;2022-12-07T03:28:35;14.80;99.90
61004;DHT22;46889;37.310;13.582;2022-12-07T03:31:22;14.90;99.90
61004;DHT22;46889;37.310;13.582;2022-12-07T03:36:30;14.80;99.90
61004;DHT22;46889;37.310;13.582;2022-12-07T03:42:04;14.80;99.90
61004;DHT22;46889;37.310;13.582;2022-12-07T03:44:40;14.80;99.90
61004;DHT22;46889;37.310;13.582;2022-12-07T03:50:58;14.80;99.90
61004;DHT22;46889;37.310;13.582;2022-12-07T03:53:31;14.80;99.90
61004;DHT22;46889;37.310;13.582;2022-12-07T03:56:01;14.80;99.90
61004;DHT22;46889;37.310;13.582;2022-12-07T03:58:28;14.70;99.90
61004;DHT22;46889;37.310;13.582;2022-12-07T04:00:56;14.70;99.90
61004;DHT22;46889;37.310;13.582;2022-12-07T04:03:23;14.60;99.90
61004;DHT22;46889;37.310;13.582;2022-12-07T04:05:49;14.60;99.90
61004;DHT22;46889;37.310;13.582;2022-12-07T04:08:15;14.60;99.90
61004;DHT22;46889;37.310;13.582;2022-12-07T04:10:41;14.60;99.90
61004;DHT22;46889;37.310;13.582;2022-12-07T04:13:07;14.60;99.90
61004;DHT22;46889;37.310;13.582;2022-12-07T04:15:33;14.60;99.90
61004;DHT22;46889;37.310;13.582;2022-12-07T04:18:01;14.60;99.90
61004;DHT22;46889;37.310;13.582;2022-12-07T04:20:27;14.60;99.90
61004;DHT22;46889;37.310;13.582;2022-12-07T04:22:53;14.60;99.90
61004;DHT22;46889;37.310;13.582;2022-12-07T04:25:20;14.60;99.90
61004;DHT22;46889;37.310;13.582;2022-12-07T04:27:46;14.60;99.90
61004;DHT22;46889;37.310;13.582;2022-12-07T04:30:13;14.60;99.90
61004;DHT22;46889;37.310;13.582;2022-12-07T04:32:40;14.70;99.90
61004;DHT22;46889;37.310;13.582;2022-12-07T04:35:09;14.60;99.90
61004;DHT22;46889;37.310;13.582;2022-12-07T04:37:35;14.60;99.90
61004;DHT22;46889;37.310;13.582;2022-12-07T04:40:02;14.60;99.90
61004;DHT22;46889;37.310;13.582;2022-12-07T04:42:28;14.60;99.90
61004;DHT22;46889;37.310;13.582;2022-12-07T04:44:54;14.50;99.90
61004;DHT22;46889;37.310;13.582;2022-12-07T04:47:20;14.50;99.90
61004;DHT22;46889;37.310;13.582;2022-12-07T04:49:47;14.50;99.90
61004;DHT22;46889;37.310;13.582;2022-12-07T04:52:14;14.50;99.90
61004;DHT22;46889;37.310;13.582;2022-12-07T04:54:42;14.50;99.90
61004;DHT22;46889;37.310;13.582;2022-12-07T04:57:09;14.50;99.90
61004;DHT22;46889;37.310;13.582;2022-12-07T04:59:40;14.60;99.90
61004;DHT22;46889;37.310;13.582;2022-12-07T05:02:07;14.60;99.90
61004;DHT22;46889;37.310;13.582;2022-12-07T05:04:33;14.60;99.90
61004;DHT22;46889;37.310;13.582;2022-12-07T05:06:59;14.70;99.90
61004;DHT22;46889;37.310;13.582;2022-12-07T05:09:25;14.60;99.90
61004;DHT22;46889;37.310;13.582;2022-12-07T05:11:55;14.60;99.90
61004;DHT22;46889;37.310;13.582;2022-12-07T05:14:24;14.70;99.90
61004;DHT22;46889;37.310;13.582;2022-12-07T05:16:51;14.70;99.90
61004;DHT22;46889;37.310;13.582;2022-12-07T05:19:17;14.70;99.90
61004;DHT22;46889;37.310;13.582;2022-12-07T05:21:44;14.80;99.90
61004;DHT22;46889;37.310;13.582;2022-12-07T05:24:12;14.80;99.90
61004;DHT22;46889;37.310;13.582;2022-12-07T05:26:40;14.80;99.90
61004;DHT22;46889;37.310;13.582;2022-12-07T05:29:07;14.80;99.90
61004;DHT22;46889;37.310;13.582;2022-12-07T05:31:34;14.80;99.90
61004;DHT22;46889;37.310;13.582;2022-12-07T05:34:00;14.80;99.90
61004;DHT22;46889;37.310;13.582;2022-12-07T05:36:26;14.80;99.90
61004;DHT22;46889;37.310;13.582;2022-12-07T05:38:54;14.80;99.90
61004;DHT22;46889;37.310;13.582;2022-12-07T05:41:21;14.80;99.90
61004;DHT22;46889;37.310;13.582;2022-12-07T05:44:23;14.80;99.90
61004;DHT22;46889;37.310;13.582;2022-12-07T05:46:49;14.80;99.90
61004;DHT22;46889;37.310;13.582;2022-12-07T05:49:17;14.90;99.90
61004;DHT22;46889;37.310;13.582;2022-12-07T05:51:44;14.90;99.90
61004;DHT22;46889;37.310;13.582;2022-12-07T05:54:10;14.90;99.90
61004;DHT22;46889;37.310;13.582;2022-12-07T05:56:37;14.90;99.90
61004;DHT22;46889;37.310;13.582;2022-12-07T05:59:03;15.00;99.90
61004;DHT22;46889;37.310;13.582;2022-12-07T06:01:52;15.00;99.90
61004;DHT22;46889;37.310;13.582;2022-12-07T06:04:19;15.10;99.90
61004;DHT22;46889;37.310;13.582;2022-12-07T06:06:48;15.20;99.90
61004;DHT22;46889;37.310;13.582;2022-12-07T06:09:35;15.20;99.90
61004;DHT22;46889;37.310;13.582;2022-12-07T06:12:10;15.20;99.90
61004;DHT22;46889;37.310;13.582;2022-12-07T06:14:56;15.20;99.90
61004;DHT22;46889;37.310;13.582;2022-12-07T06:17:23;15.10;99.90
61004;DHT22;46889;37.310;13.582;2022-12-07T06:19:49;15.10;99.90
61004;DHT22;46889;37.310;13.582;2022-12-07T06:22:15;15.20;99.90
61004;DHT22;46889;37.310;13.582;2022-12-07T06:24:51;15.20;99.90
61004;DHT22;46889;37.310;13.582;2022-12-07T06:27:18;15.20;99.90
61004;DHT22;46889;37.310;13.582;2022-12-07T06:29:44;15.20;99.90
61004;DHT22;46889;37.310;13.582;2022-12-07T06:32:12;15.20;99.90
61004;DHT22;46889;37.310;13.582;2022-12-07T06:34:41;15.20;99.90
61004;DHT22;46889;37.310;13.582;2022-12-07T06:37:19;15.20;99.90
61004;DHT22;46889;37.310;13.582;2022-12-07T06:39:46;15.20;99.90
61004;DHT22;46889;37.310;13.582;2022-12-07T06:44:48;15.20;99.90
61004;DHT22;46889;37.310;13.582;2022-12-07T06:47:14;15.30;99.90
61004;DHT22;46889;37.310;13.582;2022-12-07T06:49:52;15.30;99.90
61004;DHT22;46889;37.310;13.582;2022-12-07T06:52:21;15.40;99.90
61004;DHT22;46889;37.310;13.582;2022-12-07T06:54:51;15.50;99.90
61004;DHT22;46889;37.310;13.582;2022-12-07T06:57:17;15.50;99.90
61004;DHT22;46889;37.310;13.582;2022-12-07T06:59:43;15.60;99.90
61004;DHT22;46889;37.310;13.582;2022-12-07T07:02:10;15.70;99.90
61004;DHT22;46889;37.310;13.582;2022-12-07T07:04:36;15.70;99.90
61004;DHT22;46889;37.310;13.582;2022-12-07T07:07:02;15.80;99.90
61004;DHT22;46889;37.310;13.582;2022-12-07T07:09:37;15.90;99.90
61004;DHT22;46889;37.310;13.582;2022-12-07T07:12:05;16.00;99.90
61004;DHT22;46889;37.310;13.582;2022-12-07T07:14:31;16.10;99.90
61004;DHT22;46889;37.310;13.582;2022-12-07T07:16:58;16.30;99.90
61004;DHT22;46889;37.310;13.582;2022-12-07T07:19:24;16.50;99.90
61004;DHT22;46889;37.310;13.582;2022-12-07T07:21:50;16.60;99.90
61004;DHT22;46889;37.310;13.582;2022-12-07T07:24:16;16.80;99.90
61004;DHT22;46889;37.310;13.582;2022-12-07T07:26:42;17.10;99.90
61004;DHT22;46889;37.310;13.582;2022-12-07T07:29:08;17.30;99.90
61004;DHT22;46889;37.310;13.582;2022-12-07T07:31:34;17.60;99.90
61004;DHT22;46889;37.310;13.582;2022-12-07T07:34:02;17.90;99.90
61004;DHT22;46889;37.310;13.582;2022-12-07T07:36:29;18.10;99.90
61004;DHT22;46889;37.310;13.582;2022-12-07T07:38:55;18.40;99.90
61004;DHT22;46889;37.310;13.582;2022-12-07T07:41:21;18.60;99.90
61004;DHT22;46889;37.310;13.582;2022-12-07T07:43:47;18.70;99.90
61004;DHT22;46889;37.310;13.582;2022-12-07T07:46:13;18.90;99.90
61004;DHT22;46889;37.310;13.582;2022-12-07T07:48:39;19.00;99.90
61004;DHT22;46889;37.310;13.582;2022-12-07T07:51:07;19.20;99.90
61004;DHT22;46889;37.310;13.582;2022-12-07T07:53:34;19.30;99.90
61004;DHT22;46889;37.310;13.582;2022-12-07T07:56:00;19.40;99.90
61004;DHT22;46889;37.310;13.582;2022-12-07T07:58:27;19.50;99.90
61004;DHT22;46889;37.310;13.582;2022-12-07T08:00:56;19.50;99.90
61004;DHT22;46889;37.310;13.582;2022-12-07T08:03:23;19.70;99.90
61004;DHT22;46889;37.310;13.582;2022-12-07T08:05:50;19.80;99.90
61004;DHT22;46889;37.310;13.582;2022-12-07T08:08:16;20.00;99.90
61004;DHT22;46889;37.310;13.582;2022-12-07T08:10:42;20.00;99.90
61004;DHT22;46889;37.310;13.582;2022-12-07T08:13:08;20.10;99.90
61004;DHT22;46889;37.310;13.582;2022-12-07T08:15:43;20.00;99.90
61004;DHT22;46889;37.310;13.582;2022-12-07T08:18:09;20.10;99.90
61004;DHT22;46889;37.310;13.582;2022-12-07T08:20:36;20.10;99.90
61004;DHT22;46889;37.310;13.582;2022-12-07T08:23:02;20.10;99.90
61004;DHT22;46889;37.310;13.582;2022-12-07T08:25:28;20.10;99.90
61004;DHT22;46889;37.310;13.582;2022-12-07T08:27:54;20.10;99.90
61004;DHT22;46889;37.310;13.582;2022-12-07T08:30:21;20.10;99.90
61004;DHT22;46889;37.310;13.582;2022-12-07T08:32:59;20.10;99.90
61004;DHT22;46889;37.310;13.582;2022-12-07T08:35:25;20.20;99.90
61004;DHT22;46889;37.310;13.582;2022-12-07T08:37:52;20.20;99.90
61004;DHT22;46889;37.310;13.582;2022-12-07T08:40:28;20.20;99.90
61004;DHT22;46889;37.310;13.582;2022-12-07T08:42:59;20.20;99.90
61004;DHT22;46889;37.310;13.582;2022-12-07T08:45:25;20.10;99.90
61004;DHT22;46889;37.310;13.582;2022-12-07T08:47:59;20.10;99.90
61004;DHT22;46889;37.310;13.582;2022-12-07T08:50:28;19.90;99.90
61004;DHT22;46889;37.310;13.582;2022-12-07T08:52:57;19.80;99.90
61004;DHT22;46889;37.310;13.582;2022-12-07T08:55:25;19.70;99.90
61004;DHT22;46889;37.310;13.582;2022-12-07T08:57:52;19.70;99.90
61004;DHT22;46889;37.310;13.582;2022-12-07T09:00:20;19.80;99.90
61004;DHT22;46889;37.310;13.582;2022-12-07T09:02:47;20.00;99.90
61004;DHT22;46889;37.310;13.582;2022-12-07T09:05:13;20.10;99.90
61004;DHT22;46889;37.310;13.582;2022-12-07T09:07:44;20.30;99.90
61004;DHT22;46889;37.310;13.582;2022-12-07T09:13:25;20.40;99.90
61004;DHT22;46889;37.310;13.582;2022-12-07T09:15:52;20.50;99.90
61004;DHT22;46889;37.310;13.582;2022-12-07T09:18:19;20.60;99.90
61004;DHT22;46889;37.310;13.582;2022-12-07T09:20:45;20.60;99.90
61004;DHT22;46889;37.310;13.582;2022-12-07T09:23:11;20.70;99.90
61004;DHT22;46889;37.310;13.582;2022-12-07T09:25:39;20.70;99.90
61004;DHT22;46889;37.310;13.582;2022-12-07T09:28:05;20.70;99.90
61004;DHT22;46889;37.310;13.582;2022-12-07T09:30:31;20.80;99.90
61004;DHT22;46889;37.310;13.582;2022-12-07T09:32:57;20.80;99.90
61004;DHT22;46889;37.310;13.582;2022-12-07T09:35:25;20.60;99.90
61004;DHT22;46889;37.310;13.582;2022-12-07T09:37:53;20.60;99.90
61004;DHT22;46889;37.310;13.582;2022-12-07T09:40:21;20.60;99.90
61004;DHT22;46889;37.310;13.582;2022-12-07T09:42:52;20.60;99.90
61004;DHT22;46889;37.310;13.582;2022-12-07T09:45:31;20.60;99.90
61004;DHT22;46889;37.310;13.582;2022-12-07T09:47:58;20.60;99.90
61004;DHT22;46889;37.310;13.582;2022-12-07T09:50:27;20.50;99.90
61004;DHT22;46889;37.310;13.582;2022-12-07T09:53:11;20.70;99.90
61004;DHT22;46889;37.310;13.582;2022-12-07T09:55:41;20.70;99.90
61004;DHT22;46889;37.310;13.582;2022-12-07T09:58:24;20.70;99.90
61004;DHT22;46889;37.310;13.582;2022-12-07T10:01:01;20.50;99.90
61004;DHT22;46889;37.310;13.582;2022-12-07T10:03:31;20.20;99.90
61004;DHT22;46889;37.310;13.582;2022-12-07T10:06:01;20.00;99.90
61004;DHT22;46889;37.310;13.582;2022-12-07T10:08:29;20.30;99.90
61004;DHT22;46889;37.310;13.582;2022-12-07T10:10:59;20.20;99.90
61004;DHT22;46889;37.310;13.582;2022-12-07T10:13:47;19.90;99.90
61004;DHT22;46889;37.310;13.582;2022-12-07T10:16:31;20.00;99.90
61004;DHT22;46889;37.310;13.582;2022-12-07T10:19:27;19.70;99.90
61004;DHT22;46889;37.310;13.582;2022-12-07T10:22:19;19.90;99.90
61004;DHT22;46889;37.310;13.582;2022-12-07T10:24:51;20.00;99.90
61004;DHT22;46889;37.310;13.582;2022-12-07T10:27:26;20.00;99.90
61004;DHT22;46889;37.310;13.582;2022-12-07T10:29:53;20.30;99.90
61004;DHT22;46889;37.310;13.582;2022-12-07T10:34:45;20.60;99.90
61004;DHT22;46889;37.310;13.582;2022-12-07T10:37:16;20.70;99.90
61004;DHT22;46889;37.310;13.582;2022-12-07T10:39:55;20.80;99.90
61004;DHT22;46889;37.310;13.582;2022-12-07T10:42:31;20.80;99.90
61004;DHT22;46889;37.310;13.582;2022-12-07T10:45:16;20.90;99.90
61004;DHT22;46889;37.310;13.582;2022-12-07T11:03:02;20.60;99.90
61004;DHT22;46889;37.310;13.582;2022-12-07T11:06:01;20.70;99.90
61004;DHT22;46889;37.310;13.582;2022-12-07T11:11:38;20.70;99.90
61004;DHT22;46889;37.310;13.582;2022-12-07T11:14:54;20.90;99.90
61004;DHT22;46889;37.310;13.582;2022-12-07T11:20:05;21.10;99.90
61004;DHT22;46889;37.310;13.582;2022-12-07T11:26:06;21.30;99.90
61004;DHT22;46889;37.310;13.582;2022-12-07T11:31:44;20.80;99.90
61004;DHT22;46889;37.310;13.582;2022-12-07T11:37:42;20.20;99.90
61004;DHT22;46889;37.310;13.582;2022-12-07T11:40:31;20.10;99.90
61004;DHT22;46889;37.310;13.582;2022-12-07T11:46:14;20.60;99.90
61004;DHT22;46889;37.310;13.582;2022-12-07T11:48:49;20.70;99.90
61004;DHT22;46889;37.310;13.582;2022-12-07T11:51:19;20.90;99.90
61004;DHT22;46889;37.310;13.582;2022-12-07T11:54:01;20.90;99.90
61004;DHT22;46889;37.310;13.582;2022-12-07T11:56:29;20.90;99.90
61004;DHT22;46889;37.310;13.582;2022-12-07T11:59:32;21.00;99.90
61004;DHT22;46889;37.310;13.582;2022-12-07T12:04:55;21.20;99.90
61004;DHT22;46889;37.310;13.582;2022-12-07T12:07:26;21.30;99.90
61004;DHT22;46889;37.310;13.582;2022-12-07T12:10:06;21.30;99.90
61004;DHT22;46889;37.310;13.582;2022-12-07T12:12:57;21.40;99.90
61004;DHT22;46889;37.310;13.582;2022-12-07T12:15:58;21.40;99.90
61004;DHT22;46889;37.310;13.582;2022-12-07T12:21:26;21.60;99.90
61004;DHT22;46889;37.310;13.582;2022-12-07T12:24:04;21.50;99.90
61004;DHT22;46889;37.310;13.582;2022-12-07T12:26:36;21.30;99.90
61004;DHT22;46889;37.310;13.582;2022-12-07T12:29:13;21.20;99.90
61004;DHT22;46889;37.310;13.582;2022-12-07T12:32:04;21.20;99.90
61004;DHT22;46889;37.310;13.582;2022-12-07T12:34:37;21.20;99.90
61004;DHT22;46889;37.310;13.582;2022-12-07T12:42:53;21.40;99.90
61004;DHT22;46889;37.310;13.582;2022-12-07T12:45:29;21.40;99.90
61004;DHT22;46889;37.310;13.582;2022-12-07T12:50:38;21.50;99.90
61004;DHT22;46889;37.310;13.582;2022-12-07T12:53:15;21.50;99.90
61004;DHT22;46889;37.310;13.582;2022-12-07T12:56:05;21.20;99.90
61004;DHT22;46889;37.310;13.582;2022-12-07T12:58:39;21.10;99.90
61004;DHT22;46889;37.310;13.582;2022-12-07T13:07:52;21.10;99.90
61004;DHT22;46889;37.310;13.582;2022-12-07T13:16:36;21.00;99.90
61004;DHT22;46889;37.310;13.582;2022-12-07T13:18:42;21.00;99.90
61004;DHT22;46889;37.310;13.582;2022-12-07T13:26:38;20.90;99.90
61004;DHT22;46889;37.310;13.582;2022-12-07T13:31:41;20.90;99.90
61004;DHT22;46889;37.310;13.582;2022-12-07T13:34:30;20.90;99.90
61004;DHT22;46889;37.310;13.582;2022-12-07T13:40:01;20.70;99.90
61004;DHT22;46889;37.310;13.582;2022-12-07T13:42:44;20.70;99.90
61004;DHT22;46889;37.310;13.582;2022-12-07T13:45:32;20.70;99.90
61004;DHT22;46889;37.310;13.582;2022-12-07T13:48:21;20.80;99.90
61004;DHT22;46889;37.310;13.582;2022-12-07T13:50:55;20.80;99.90
61004;DHT22;46889;37.310;13.582;2022-12-07T13:53:22;20.80;99.90
61004;DHT22;46889;37.310;13.582;2022-12-07T13:55:48;20.70;99.90
61004;DHT22;46889;37.310;13.582;2022-12-07T13:58:14;20.60;99.90
61004;DHT22;46889;37.310;13.582;2022-12-07T14:00:44;20.60;99.90
61004;DHT22;46889;37.310;13.582;2022-12-07T14:05:43;20.60;99.90
61004;DHT22;46889;37.310;13.582;2022-12-07T14:11:02;20.50;99.90
61004;DHT22;46889;37.310;13.582;2022-12-07T14:13:33;20.50;99.90
61004;DHT22;46889;37.310;13.582;2022-12-07T14:16:03;20.60;99.90
61004;DHT22;46889;37.310;13.582;2022-12-07T14:23:40;20.30;99.90
61004;DHT22;46889;37.310;13.582;2022-12-07T14:26:15;20.30;99.90
61004;DHT22;46889;37.310;13.582;2022-12-07T14:28:42;20.30;99.90
61004;DHT22;46889;37.310;13.582;2022-12-07T14:31:24;20.10;99.90
61004;DHT22;46889;37.310;13.582;2022-12-07T14:33:53;19.90;99.90
61004;DHT22;46889;37.310;13.582;2022-12-07T14:36:26;19.90;99.90
61004;DHT22;46889;37.310;13.582;2022-12-07T14:38:52;19.90;99.90
61004;DHT22;46889;37.310;13.582;2022-12-07T14:41:22;19.90;99.90
61004;DHT22;46889;37.310;13.582;2022-12-07T14:44:12;19.80;99.90
61004;DHT22;46889;37.310;13.582;2022-12-07T14:46:38;19.80;99.90
61004;DHT22;46889;37.310;13.582;2022-12-07T14:49:04;19.80;99.90
61004;DHT22;46889;37.310;13.582;2022-12-07T14:51:31;19.80;99.90
61004;DHT22;46889;37.310;13.582;2022-12-07T14:53:57;19.70;99.90
61004;DHT22;46889;37.310;13.582;2022-12-07T14:56:24;19.60;99.90
61004;DHT22;46889;37.310;13.582;2022-12-07T14:58:50;19.60;99.90
61004;DHT22;46889;37.310;13.582;2022-12-07T15:01:17;19.60;99.90
61004;DHT22;46889;37.310;13.582;2022-12-07T15:03:45;19.60;99.90
61004;DHT22;46889;37.310;13.582;2022-12-07T15:06:16;19.50;99.90
61004;DHT22;46889;37.310;13.582;2022-12-07T15:08:43;19.40;99.90
61004;DHT22;46889;37.310;13.582;2022-12-07T15:11:15;19.30;99.90
61004;DHT22;46889;37.310;13.582;2022-12-07T15:13:43;19.20;99.90
61004;DHT22;46889;37.310;13.582;2022-12-07T15:16:27;19.10;99.90
61004;DHT22;46889;37.310;13.582;2022-12-07T15:18:53;19.00;99.90
61004;DHT22;46889;37.310;13.582;2022-12-07T15:21:19;18.80;99.90
61004;DHT22;46889;37.310;13.582;2022-12-07T15:23:46;18.70;99.90
61004;DHT22;46889;37.310;13.582;2022-12-07T15:26:13;18.60;99.90
61004;DHT22;46889;37.310;13.582;2022-12-07T15:28:40;18.40;99.90
61004;DHT22;46889;37.310;13.582;2022-12-07T15:31:14;18.30;99.90
61004;DHT22;46889;37.310;13.582;2022-12-07T15:33:41;18.20;99.90
61004;DHT22;46889;37.310;13.582;2022-12-07T15:36:07;18.10;99.90
61004;DHT22;46889;37.310;13.582;2022-12-07T15:38:36;17.90;99.90
61004;DHT22;46889;37.310;13.582;2022-12-07T15:41:03;17.90;99.90
61004;DHT22;46889;37.310;13.582;2022-12-07T15:43:32;17.80;99.90
61004;DHT22;46889;37.310;13.582;2022-12-07T15:46:16;17.70;99.90
61004;DHT22;46889;37.310;13.582;2022-12-07T15:48:42;17.60;99.90
61004;DHT22;46889;37.310;13.582;2022-12-07T15:51:11;17.50;99.90
61004;DHT22;46889;37.310;13.582;2022-12-07T15:53:37;17.40;99.90
61004;DHT22;46889;37.310;13.582;2022-12-07T15:56:07;17.30;99.90
61004;DHT22;46889;37.310;13.582;2022-12-07T15:58:34;17.30;99.90
61004;DHT22;46889;37.310;13.582;2022-12-07T16:01:00;17.20;99.90
61004;DHT22;46889;37.310;13.582;2022-12-07T16:03:29;17.10;99.90
61004;DHT22;46889;37.310;13.582;2022-12-07T16:05:57;17.10;99.90
61004;DHT22;46889;37.310;13.582;2022-12-07T16:08:23;17.00;99.90
61004;DHT22;46889;37.310;13.582;2022-12-07T16:10:49;17.00;99.90
61004;DHT22;46889;37.310;13.582;2022-12-07T16:13:16;16.90;99.90
61004;DHT22;46889;37.310;13.582;2022-12-07T16:15:49;16.80;99.90
61004;DHT22;46889;37.310;13.582;2022-12-07T16:18:15;16.70;99.90
61004;DHT22;46889;37.310;13.582;2022-12-07T16:20:41;16.60;99.90
61004;DHT22;46889;37.310;13.582;2022-12-07T16:23:08;16.40;99.90
61004;DHT22;46889;37.310;13.582;2022-12-07T16:25:34;16.30;99.90
61004;DHT22;46889;37.310;13.582;2022-12-07T16:28:01;16.20;99.90
61004;DHT22;46889;37.310;13.582;2022-12-07T16:30:27;16.10;99.90
61004;DHT22;46889;37.310;13.582;2022-12-07T16:32:54;16.10;99.90
61004;DHT22;46889;37.310;13.582;2022-12-07T16:35:31;16.00;99.90
61004;DHT22;46889;37.310;13.582;2022-12-07T16:37:57;16.00;99.90
61004;DHT22;46889;37.310;13.582;2022-12-07T16:40:28;16.00;99.90
61004;DHT22;46889;37.310;13.582;2022-12-07T16:42:54;16.00;99.90
61004;DHT22;46889;37.310;13.582;2022-12-07T16:45:21;16.00;99.90
61004;DHT22;46889;37.310;13.582;2022-12-07T16:47:47;16.10;99.90
61004;DHT22;46889;37.310;13.582;2022-12-07T16:50:14;16.00;99.90
61004;DHT22;46889;37.310;13.582;2022-12-07T16:52:40;16.00;99.90
61004;DHT22;46889;37.310;13.582;2022-12-07T16:55:24;16.00;99.90
61004;DHT22;46889;37.310;13.582;2022-12-07T16:57:50;16.00;99.90
61004;DHT22;46889;37.310;13.582;2022-12-07T17:00:18;16.00;99.90
61004;DHT22;46889;37.310;13.582;2022-12-07T17:02:46;16.00;99.90
61004;DHT22;46889;37.310;13.582;2022-12-07T17:05:12;15.90;99.90
61004;DHT22;46889;37.310;13.582;2022-12-07T17:07:38;15.90;99.90
61004;DHT22;46889;37.310;13.582;2022-12-07T17:10:06;15.90;99.90
61004;DHT22;46889;37.310;13.582;2022-12-07T17:12:32;16.00;99.90
61004;DHT22;46889;37.310;13.582;2022-12-07T17:14:59;16.00;99.90
61004;DHT22;46889;37.310;13.582;2022-12-07T17:17:52;16.10;99.90
61004;DHT22;46889;37.310;13.582;2022-12-07T17:20:23;16.10;99.90
61004;DHT22;46889;37.310;13.582;2022-12-07T17:22:51;16.00;99.90
61004;DHT22;46889;37.310;13.582;2022-12-07T17:25:19;15.80;99.90
61004;DHT22;46889;37.310;13.582;2022-12-07T17:27:46;15.80;99.90
61004;DHT22;46889;37.310;13.582;2022-12-07T17:30:13;15.70;99.90
61004;DHT22;46889;37.310;13.582;2022-12-07T17:32:39;15.70;99.90
61004;DHT22;46889;37.310;13.582;2022-12-07T17:35:07;15.70;99.90
61004;DHT22;46889;37.310;13.582;2022-12-07T17:37:33;15.60;99.90
61004;DHT22;46889;37.310;13.582;2022-12-07T17:39:59;15.60;99.90
61004;DHT22;46889;37.310;13.582;2022-12-07T17:42:27;15.60;99.90
61004;DHT22;46889;37.310;13.582;2022-12-07T17:45:30;15.60;99.90